sensor_id;sensor_type;location;lat;lon;timestamp;P1;durP1;ratioP1;P2;durP2;ratioP2
19863;SDS011;10094;48.820;9.226;2023-07-20T00:00:40;6.97;;;2.38;;
19863;SDS011;10094;48.820;9.226;2023-07-20T00:07:25;5.88;;;2.67;;
19863;SDS011;10094;48.820;9.226;2023-07-20T00:14:08;3.50;;;2.33;;
19863;SDS011;10094;48.820;9.226;2023-07-20T00:20:51;6.45;;;2.33;;
19863;SDS011;10094;48.820;9.226;2023-07-20T00:27:36;3.97;;;2.25;;
19863;SDS011;10094;48.820;9.226;2023-07-20T00:34:19;3.28;;;2.45;;
19863;SDS011;10094;48.820;9.226;2023-07-20T00:41:02;2.65;;;2.15;;
19863;SDS011;10094;48.820;9.226;2023-07-20T00:47:45;3.92;;;2.15;;
19863;SDS011;10094;48.820;9.226;2023-07-20T00:54:28;3.20;;;2.03;;
19863;SDS011;10094;48.820;9.226;2023-07-20T01:01:12;5.50;;;2.40;;
19863;SDS011;10094;48.820;9.226;2023-07-20T01:07:58;4.13;;;2.15;;
19863;SDS011;10094;48.820;9.226;2023-07-20T01:14:44;4.72;;;2.30;;
19863;SDS011;10094;48.820;9.226;2023-07-20T01:21:48;3.50;;;1.95;;
19863;SDS011;10094;48.820;9.226;2023-07-20T01:35:51;3.22;;;2.05;;
19863;SDS011;10094;48.820;9.226;2023-07-20T01:42:36;4.10;;;2.30;;
19863;SDS011;10094;48.820;9.226;2023-07-20T01:49:19;4.50;;;2.20;;
19863;SDS011;10094;48.820;9.226;2023-07-20T01:56:02;2.35;;;1.92;;
19863;SDS011;10094;48.820;9.226;2023-07-20T02:02:45;3.25;;;2.08;;
19863;SDS011;10094;48.820;9.226;2023-07-20T02:09:28;2.53;;;2.10;;
19863;SDS011;10094;48.820;9.226;2023-07-20T02:16:10;4.18;;;2.33;;
19863;SDS011;10094;48.820;9.226;2023-07-20T02:22:53;4.20;;;2.83;;
19863;SDS011;10094;48.820;9.226;2023-07-20T02:29:36;4.95;;;2.42;;
19863;SDS011;10094;48.820;9.226;2023-07-20T02:36:19;7.03;;;2.35;;
19863;SDS011;10094;48.820;9.226;2023-07-20T02:43:02;4.45;;;2.35;;
19863;SDS011;10094;48.820;9.226;2023-07-20T02:49:45;3.78;;;2.17;;
19863;SDS011;10094;48.820;9.226;2023-07-20T02:56:28;4.40;;;2.90;;
19863;SDS011;10094;48.820;9.226;2023-07-20T03:03:11;3.95;;;2.65;;
19863;SDS011;10094;48.820;9.226;2023-07-20T03:09:54;4.90;;;2.60;;
19863;SDS011;10094;48.820;9.226;2023-07-20T03:16:37;6.55;;;3.00;;
19863;SDS011;10094;48.820;9.226;2023-07-20T03:23:20;4.93;;;2.53;;
19863;SDS011;10094;48.820;9.226;2023-07-20T03:30:02;4.80;;;2.42;;
19863;SDS011;10094;48.820;9.226;2023-07-20T03:36:46;4.07;;;2.75;;
19863;SDS011;10094;48.820;9.226;2023-07-20T03:43:29;4.78;;;2.53;;
19863;SDS011;10094;48.820;9.226;2023-07-20T03:50:12;6.30;;;2.55;;
19863;SDS011;10094;48.820;9.226;2023-07-20T03:56:54;5.63;;;2.65;;
19863;SDS011;10094;48.820;9.226;2023-07-20T04:03:37;4.53;;;2.92;;
19863;SDS011;10094;48.820;9.226;2023-07-20T04:10:20;4.70;;;3.13;;
19863;SDS011;10094;48.820;9.226;2023-07-20T04:17:06;4.55;;;2.85;;
19863;SDS011;10094;48.820;9.226;2023-07-20T04:23:49;5.10;;;3.25;;
19863;SDS011;10094;48.820;9.226;2023-07-20T04:30:33;4.55;;;2.47;;
19863;SDS011;10094;48.820;9.226;2023-07-20T04:37:16;6.22;;;2.72;;
19863;SDS011;10094;48.820;9.226;2023-07-20T04:44:00;6.40;;;2.65;;
19863;SDS011;10094;48.820;9.226;2023-07-20T04:50:45;6.85;;;2.95;;
19863;SDS011;10094;48.820;9.226;2023-07-20T04:57:29;3.30;;;2.53;;
19863;SDS011;10094;48.820;9.226;2023-07-20T05:04:12;4.70;;;2.53;;
19863;SDS011;10094;48.820;9.226;2023-07-20T05:10:57;4.57;;;2.55;;
19863;SDS011;10094;48.820;9.226;2023-07-20T05:17:41;6.07;;;2.60;;
19863;SDS011;10094;48.820;9.226;2023-07-20T05:24:24;5.75;;;2.92;;
19863;SDS011;10094;48.820;9.226;2023-07-20T05:31:06;2.90;;;2.40;;
19863;SDS011;10094;48.820;9.226;2023-07-20T05:37:49;6.05;;;2.85;;
19863;SDS011;10094;48.820;9.226;2023-07-20T05:44:32;4.32;;;2.80;;
19863;SDS011;10094;48.820;9.226;2023-07-20T05:51:15;5.68;;;2.42;;
19863;SDS011;10094;48.820;9.226;2023-07-20T05:57:57;4.68;;;2.53;;
19863;SDS011;10094;48.820;9.226;2023-07-20T06:04:40;5.38;;;2.38;;
19863;SDS011;10094;48.820;9.226;2023-07-20T06:24:48;3.55;;;2.20;;
19863;SDS011;10094;48.820;9.226;2023-07-20T06:58:23;3.97;;;2.72;;
19863;SDS011;10094;48.820;9.226;2023-07-20T07:05:06;4.45;;;2.17;;
19863;SDS011;10094;48.820;9.226;2023-07-20T07:11:52;9.88;;;3.30;;
19863;SDS011;10094;48.820;9.226;2023-07-20T07:25:17;6.22;;;2.53;;
19863;SDS011;10094;48.820;9.226;2023-07-20T07:32:05;3.65;;;2.38;;
19863;SDS011;10094;48.820;9.226;2023-07-20T07:38:48;4.93;;;2.67;;
19863;SDS011;10094;48.820;9.226;2023-07-20T07:45:53;7.50;;;2.58;;
19863;SDS011;10094;48.820;9.226;2023-07-20T07:52:36;4.28;;;2.40;;
19863;SDS011;10094;48.820;9.226;2023-07-20T08:06:01;5.80;;;2.45;;
19863;SDS011;10094;48.820;9.226;2023-07-20T08:12:46;4.93;;;2.50;;
19863;SDS011;10094;48.820;9.226;2023-07-20T08:26:11;3.22;;;2.33;;
19863;SDS011;10094;48.820;9.226;2023-07-20T08:32:54;3.78;;;2.40;;
19863;SDS011;10094;48.820;9.226;2023-07-20T08:39:37;4.28;;;2.20;;
19863;SDS011;10094;48.820;9.226;2023-07-20T08:46:19;5.22;;;2.15;;
19863;SDS011;10094;48.820;9.226;2023-07-20T09:19:58;3.17;;;2.35;;
19863;SDS011;10094;48.820;9.226;2023-07-20T09:26:41;3.13;;;2.25;;
19863;SDS011;10094;48.820;9.226;2023-07-20T09:33:29;5.85;;;2.45;;
19863;SDS011;10094;48.820;9.226;2023-07-20T09:40:14;2.47;;;2.17;;
19863;SDS011;10094;48.820;9.226;2023-07-20T09:46:57;3.25;;;2.20;;
19863;SDS011;10094;48.820;9.226;2023-07-20T10:00:23;2.50;;;1.80;;
19863;SDS011;10094;48.820;9.226;2023-07-20T10:07:10;6.13;;;2.35;;
19863;SDS011;10094;48.820;9.226;2023-07-20T10:13:54;2.55;;;1.77;;
19863;SDS011;10094;48.820;9.226;2023-07-20T10:20:41;2.38;;;1.85;;
19863;SDS011;10094;48.820;9.226;2023-07-20T10:27:44;4.07;;;2.00;;
19863;SDS011;10094;48.820;9.226;2023-07-20T10:34:27;2.55;;;1.63;;
19863;SDS011;10094;48.820;9.226;2023-07-20T10:41:20;2.63;;;1.60;;
19863;SDS011;10094;48.820;9.226;2023-07-20T10:48:20;3.40;;;1.92;;
19863;SDS011;10094;48.820;9.226;2023-07-20T10:55:16;2.22;;;1.77;;
19863;SDS011;10094;48.820;9.226;2023-07-20T11:01:59;2.30;;;1.70;;
19863;SDS011;10094;48.820;9.226;2023-07-20T11:08:43;2.13;;;1.70;;
19863;SDS011;10094;48.820;9.226;2023-07-20T11:15:44;2.97;;;1.85;;
19863;SDS011;10094;48.820;9.226;2023-07-20T11:22:46;2.90;;;1.52;;
19863;SDS011;10094;48.820;9.226;2023-07-20T11:29:29;1.48;;;1.38;;
19863;SDS011;10094;48.820;9.226;2023-07-20T11:36:15;1.40;;;1.30;;
19863;SDS011;10094;48.820;9.226;2023-07-20T11:43:01;3.35;;;1.50;;
19863;SDS011;10094;48.820;9.226;2023-07-20T11:49:46;2.75;;;1.60;;
19863;SDS011;10094;48.820;9.226;2023-07-20T11:56:32;1.70;;;1.60;;
19863;SDS011;10094;48.820;9.226;2023-07-20T12:29:49;1.70;;;1.48;;
19863;SDS011;10094;48.820;9.226;2023-07-20T12:36:46;2.67;;;1.95;;
19863;SDS011;10094;48.820;9.226;2023-07-20T12:43:29;2.17;;;1.60;;
19863;SDS011;10094;48.820;9.226;2023-07-20T12:50:15;5.63;;;2.00;;
19863;SDS011;10094;48.820;9.226;2023-07-20T12:56:57;2.03;;;1.60;;
19863;SDS011;10094;48.820;9.226;2023-07-20T13:03:43;3.05;;;1.70;;
19863;SDS011;10094;48.820;9.226;2023-07-20T13:10:28;1.80;;;1.48;;
19863;SDS011;10094;48.820;9.226;2023-07-20T13:17:11;2.65;;;1.63;;
19863;SDS011;10094;48.820;9.226;2023-07-20T13:23:53;2.33;;;1.70;;
19863;SDS011;10094;48.820;9.226;2023-07-20T13:30:36;1.80;;;1.60;;
19863;SDS011;10094;48.820;9.226;2023-07-20T13:37:22;4.28;;;1.58;;
19863;SDS011;10094;48.820;9.226;2023-07-20T13:44:04;3.42;;;1.70;;
19863;SDS011;10094;48.820;9.226;2023-07-20T13:50:47;3.83;;;1.77;;
19863;SDS011;10094;48.820;9.226;2023-07-20T13:57:42;1.90;;;1.48;;
19863;SDS011;10094;48.820;9.226;2023-07-20T14:04:24;3.42;;;1.80;;
19863;SDS011;10094;48.820;9.226;2023-07-20T14:11:07;4.47;;;2.10;;
19863;SDS011;10094;48.820;9.226;2023-07-20T14:17:53;2.03;;;1.50;;
19863;SDS011;10094;48.820;9.226;2023-07-20T14:24:35;1.85;;;1.50;;
19863;SDS011;10094;48.820;9.226;2023-07-20T14:31:18;1.83;;;1.50;;
19863;SDS011;10094;48.820;9.226;2023-07-20T14:38:01;2.08;;;1.67;;
19863;SDS011;10094;48.820;9.226;2023-07-20T14:44:44;3.25;;;1.80;;
19863;SDS011;10094;48.820;9.226;2023-07-20T14:51:27;3.25;;;1.73;;
19863;SDS011;10094;48.820;9.226;2023-07-20T14:58:16;1.73;;;1.40;;
19863;SDS011;10094;48.820;9.226;2023-07-20T15:04:59;2.63;;;1.50;;
19863;SDS011;10094;48.820;9.226;2023-07-20T15:11:42;2.65;;;1.90;;
19863;SDS011;10094;48.820;9.226;2023-07-20T15:18:25;3.47;;;1.75;;
19863;SDS011;10094;48.820;9.226;2023-07-20T15:25:26;1.48;;;1.38;;
19863;SDS011;10094;48.820;9.226;2023-07-20T15:32:09;2.72;;;1.70;;
19863;SDS011;10094;48.820;9.226;2023-07-20T15:38:51;1.63;;;1.48;;
19863;SDS011;10094;48.820;9.226;2023-07-20T15:45:35;1.80;;;1.52;;
19863;SDS011;10094;48.820;9.226;2023-07-20T15:52:17;1.50;;;1.40;;
19863;SDS011;10094;48.820;9.226;2023-07-20T15:59:00;1.60;;;1.50;;
19863;SDS011;10094;48.820;9.226;2023-07-20T16:05:42;2.53;;;1.52;;
19863;SDS011;10094;48.820;9.226;2023-07-20T16:12:25;2.58;;;1.55;;
19863;SDS011;10094;48.820;9.226;2023-07-20T16:19:10;2.47;;;1.38;;
19863;SDS011;10094;48.820;9.226;2023-07-20T16:25:52;2.17;;;1.40;;
19863;SDS011;10094;48.820;9.226;2023-07-20T16:32:35;3.17;;;2.35;;
19863;SDS011;10094;48.820;9.226;2023-07-20T16:39:18;2.15;;;1.80;;
19863;SDS011;10094;48.820;9.226;2023-07-20T16:46:04;1.73;;;1.50;;
19863;SDS011;10094;48.820;9.226;2023-07-20T16:52:50;1.85;;;1.60;;
19863;SDS011;10094;48.820;9.226;2023-07-20T16:59:33;2.45;;;2.00;;
19863;SDS011;10094;48.820;9.226;2023-07-20T17:06:17;3.15;;;2.30;;
19863;SDS011;10094;48.820;9.226;2023-07-20T17:12:59;2.22;;;1.80;;
19863;SDS011;10094;48.820;9.226;2023-07-20T17:19:42;2.42;;;1.70;;
19863;SDS011;10094;48.820;9.226;2023-07-20T17:26:24;2.05;;;1.60;;
19863;SDS011;10094;48.820;9.226;2023-07-20T17:33:10;2.00;;;1.75;;
19863;SDS011;10094;48.820;9.226;2023-07-20T17:39:52;2.55;;;1.60;;
19863;SDS011;10094;48.820;9.226;2023-07-20T17:46:39;1.80;;;1.60;;
19863;SDS011;10094;48.820;9.226;2023-07-20T17:53:24;2.20;;;1.80;;
19863;SDS011;10094;48.820;9.226;2023-07-20T18:00:09;2.83;;;1.80;;
19863;SDS011;10094;48.820;9.226;2023-07-20T18:06:56;3.20;;;1.67;;
19863;SDS011;10094;48.820;9.226;2023-07-20T18:13:38;3.50;;;2.53;;
19863;SDS011;10094;48.820;9.226;2023-07-20T18:20:21;4.25;;;1.80;;
19863;SDS011;10094;48.820;9.226;2023-07-20T18:27:03;2.85;;;1.90;;
19863;SDS011;10094;48.820;9.226;2023-07-20T18:42:33;2.72;;;1.60;;
19863;SDS011;10094;48.820;9.226;2023-07-20T19:15:49;2.58;;;1.73;;
19863;SDS011;10094;48.820;9.226;2023-07-20T19:22:34;4.20;;;2.13;;
19863;SDS011;10094;48.820;9.226;2023-07-20T19:29:17;8.88;;;1.90;;
19863;SDS011;10094;48.820;9.226;2023-07-20T19:36:00;7.22;;;2.50;;
19863;SDS011;10094;48.820;9.226;2023-07-20T19:42:42;7.50;;;2.40;;
19863;SDS011;10094;48.820;9.226;2023-07-20T19:49:29;2.95;;;1.98;;
19863;SDS011;10094;48.820;9.226;2023-07-20T19:56:11;3.03;;;2.13;;
19863;SDS011;10094;48.820;9.226;2023-07-20T20:02:54;2.20;;;1.60;;
19863;SDS011;10094;48.820;9.226;2023-07-20T20:09:40;3.35;;;2.70;;
19863;SDS011;10094;48.820;9.226;2023-07-20T20:16:23;4.13;;;2.55;;
19863;SDS011;10094;48.820;9.226;2023-07-20T20:23:14;3.38;;;2.10;;
19863;SDS011;10094;48.820;9.226;2023-07-20T20:29:59;3.88;;;2.20;;
19863;SDS011;10094;48.820;9.226;2023-07-20T20:36:42;6.13;;;2.40;;
19863;SDS011;10094;48.820;9.226;2023-07-20T20:43:25;3.60;;;2.35;;
19863;SDS011;10094;48.820;9.226;2023-07-20T20:50:19;4.05;;;2.00;;
19863;SDS011;10094;48.820;9.226;2023-07-20T20:57:03;5.93;;;2.45;;
19863;SDS011;10094;48.820;9.226;2023-07-20T21:03:48;4.30;;;2.35;;
19863;SDS011;10094;48.820;9.226;2023-07-20T21:10:31;3.35;;;2.63;;
19863;SDS011;10094;48.820;9.226;2023-07-20T21:17:14;4.45;;;2.50;;
19863;SDS011;10094;48.820;9.226;2023-07-20T21:23:57;3.13;;;2.70;;
19863;SDS011;10094;48.820;9.226;2023-07-20T21:30:40;3.63;;;2.40;;
19863;SDS011;10094;48.820;9.226;2023-07-20T21:37:25;4.63;;;2.90;;
19863;SDS011;10094;48.820;9.226;2023-07-20T21:44:08;7.43;;;3.97;;
19863;SDS011;10094;48.820;9.226;2023-07-20T21:50:53;5.75;;;3.10;;
19863;SDS011;10094;48.820;9.226;2023-07-20T21:57:37;4.88;;;3.08;;
19863;SDS011;10094;48.820;9.226;2023-07-20T22:04:20;2.60;;;2.38;;
19863;SDS011;10094;48.820;9.226;2023-07-20T22:11:04;3.60;;;2.92;;
19863;SDS011;10094;48.820;9.226;2023-07-20T22:17:48;6.53;;;2.90;;
19863;SDS011;10094;48.820;9.226;2023-07-20T22:24:31;3.00;;;2.47;;
19863;SDS011;10094;48.820;9.226;2023-07-20T22:31:15;7.35;;;2.88;;
19863;SDS011;10094;48.820;9.226;2023-07-20T22:37:58;5.20;;;3.33;;
19863;SDS011;10094;48.820;9.226;2023-07-20T22:44:41;5.13;;;3.55;;
19863;SDS011;10094;48.820;9.226;2023-07-20T22:51:24;5.78;;;3.42;;
19863;SDS011;10094;48.820;9.226;2023-07-20T22:58:07;5.82;;;3.38;;
19863;SDS011;10094;48.820;9.226;2023-07-20T23:04:50;5.45;;;3.20;;
19863;SDS011;10094;48.820;9.226;2023-07-20T23:11:36;4.35;;;3.28;;
19863;SDS011;10094;48.820;9.226;2023-07-20T23:18:20;7.13;;;3.13;;
19863;SDS011;10094;48.820;9.226;2023-07-20T23:25:07;5.53;;;3.58;;
19863;SDS011;10094;48.820;9.226;2023-07-20T23:31:51;5.20;;;3.60;;
19863;SDS011;10094;48.820;9.226;2023-07-20T23:38:34;6.32;;;3.28;;
19863;SDS011;10094;48.820;9.226;2023-07-20T23:45:18;6.68;;;3.40;;
19863;SDS011;10094;48.820;9.226;2023-07-20T23:52:01;5.20;;;3.10;;
19863;SDS011;10094;48.820;9.226;2023-07-20T23:58:44;5.65;;;3.28;;
